sensor_id;sensor_type;location;lat;lon;timestamp;P1;durP1;ratioP1;P2;durP2;ratioP2
10045;SDS011;5063;50.878;4.742;2024-03-23T00:53:12;5.27;;;2.67;;
10045;SDS011;5063;50.878;4.742;2024-03-23T00:55:40;8.40;;;2.90;;
10045;SDS011;5063;50.878;4.742;2024-03-23T00:58:06;6.63;;;2.83;;
10045;SDS011;5063;50.878;4.742;2024-03-23T01:00:31;10.17;;;3.30;;
10045;SDS011;5063;50.878;4.742;2024-03-23T01:02:57;10.30;;;3.57;;
10045;SDS011;5063;50.878;4.742;2024-03-23T01:05:23;8.83;;;3.07;;
10045;SDS011;5063;50.878;4.742;2024-03-23T01:07:49;7.70;;;3.33;;
10045;SDS011;5063;50.878;4.742;2024-03-23T01:10:15;8.67;;;2.87;;
10045;SDS011;5063;50.878;4.742;2024-03-23T01:12:40;8.40;;;3.13;;
10045;SDS011;5063;50.878;4.742;2024-03-23T01:15:06;13.00;;;3.20;;
10045;SDS011;5063;50.878;4.742;2024-03-23T01:17:32;7.73;;;3.43;;
10045;SDS011;5063;50.878;4.742;2024-03-23T01:19:58;18.30;;;4.23;;
10045;SDS011;5063;50.878;4.742;2024-03-23T01:22:24;8.93;;;3.97;;
10045;SDS011;5063;50.878;4.742;2024-03-23T01:24:49;7.33;;;3.37;;
10045;SDS011;5063;50.878;4.742;2024-03-23T01:27:15;14.73;;;3.83;;
10045;SDS011;5063;50.878;4.742;2024-03-23T01:29:41;10.87;;;3.90;;
10045;SDS011;5063;50.878;4.742;2024-03-23T01:32:06;15.23;;;3.50;;
10045;SDS011;5063;50.878;4.742;2024-03-23T01:34:32;9.67;;;3.43;;
10045;SDS011;5063;50.878;4.742;2024-03-23T01:36:58;10.60;;;3.70;;
10045;SDS011;5063;50.878;4.742;2024-03-23T01:39:24;10.87;;;3.60;;
10045;SDS011;5063;50.878;4.742;2024-03-23T01:41:50;8.50;;;3.43;;
10045;SDS011;5063;50.878;4.742;2024-03-23T01:44:16;11.93;;;3.60;;
10045;SDS011;5063;50.878;4.742;2024-03-23T01:46:42;14.77;;;4.17;;
10045;SDS011;5063;50.878;4.742;2024-03-23T01:49:09;10.00;;;4.40;;
10045;SDS011;5063;50.878;4.742;2024-03-23T01:51:35;11.33;;;4.73;;
10045;SDS011;5063;50.878;4.742;2024-03-23T01:54:02;13.93;;;5.40;;
10045;SDS011;5063;50.878;4.742;2024-03-23T01:56:29;16.93;;;5.57;;
10045;SDS011;5063;50.878;4.742;2024-03-23T01:58:58;8.90;;;4.50;;
10045;SDS011;5063;50.878;4.742;2024-03-23T02:01:23;14.13;;;5.03;;
10045;SDS011;5063;50.878;4.742;2024-03-23T02:03:49;13.30;;;4.60;;
10045;SDS011;5063;50.878;4.742;2024-03-23T02:06:15;11.00;;;4.97;;
10045;SDS011;5063;50.878;4.742;2024-03-23T02:08:41;13.90;;;5.37;;
10045;SDS011;5063;50.878;4.742;2024-03-23T02:11:07;12.37;;;5.00;;
10045;SDS011;5063;50.878;4.742;2024-03-23T02:13:32;11.67;;;5.13;;
10045;SDS011;5063;50.878;4.742;2024-03-23T02:15:58;9.73;;;4.37;;
10045;SDS011;5063;50.878;4.742;2024-03-23T02:18:24;11.93;;;4.47;;
10045;SDS011;5063;50.878;4.742;2024-03-23T02:20:49;15.30;;;4.93;;
10045;SDS011;5063;50.878;4.742;2024-03-23T02:23:15;13.83;;;5.33;;
10045;SDS011;5063;50.878;4.742;2024-03-23T02:25:43;19.20;;;4.80;;
10045;SDS011;5063;50.878;4.742;2024-03-23T02:28:09;8.13;;;4.37;;
10045;SDS011;5063;50.878;4.742;2024-03-23T02:30:36;13.10;;;4.43;;
10045;SDS011;5063;50.878;4.742;2024-03-23T02:33:02;15.60;;;4.67;;
10045;SDS011;5063;50.878;4.742;2024-03-23T02:35:28;11.03;;;4.07;;
10045;SDS011;5063;50.878;4.742;2024-03-23T02:37:54;14.57;;;5.23;;
10045;SDS011;5063;50.878;4.742;2024-03-23T02:40:22;11.37;;;4.60;;
10045;SDS011;5063;50.878;4.742;2024-03-23T02:42:48;10.43;;;4.77;;
10045;SDS011;5063;50.878;4.742;2024-03-23T02:45:14;11.23;;;4.37;;
10045;SDS011;5063;50.878;4.742;2024-03-23T02:47:40;6.50;;;4.43;;
10045;SDS011;5063;50.878;4.742;2024-03-23T02:50:06;12.07;;;5.07;;
10045;SDS011;5063;50.878;4.742;2024-03-23T02:52:32;8.17;;;5.10;;
10045;SDS011;5063;50.878;4.742;2024-03-23T02:54:58;11.57;;;4.50;;
10045;SDS011;5063;50.878;4.742;2024-03-23T02:57:24;8.43;;;4.63;;
10045;SDS011;5063;50.878;4.742;2024-03-23T02:59:49;9.60;;;5.27;;
10045;SDS011;5063;50.878;4.742;2024-03-23T03:02:15;14.33;;;5.23;;
10045;SDS011;5063;50.878;4.742;2024-03-23T03:04:41;14.27;;;6.03;;
10045;SDS011;5063;50.878;4.742;2024-03-23T03:07:07;12.10;;;5.07;;
10045;SDS011;5063;50.878;4.742;2024-03-23T03:09:33;20.47;;;6.07;;
10045;SDS011;5063;50.878;4.742;2024-03-23T03:12:01;12.90;;;5.80;;
10045;SDS011;5063;50.878;4.742;2024-03-23T03:14:28;19.00;;;6.93;;
10045;SDS011;5063;50.878;4.742;2024-03-23T03:16:54;10.70;;;5.40;;
10045;SDS011;5063;50.878;4.742;2024-03-23T03:19:20;14.50;;;6.80;;
10045;SDS011;5063;50.878;4.742;2024-03-23T03:21:45;10.40;;;6.80;;
10045;SDS011;5063;50.878;4.742;2024-03-23T03:24:12;16.87;;;6.70;;
10045;SDS011;5063;50.878;4.742;2024-03-23T03:26:38;18.07;;;7.13;;
10045;SDS011;5063;50.878;4.742;2024-03-23T03:29:05;17.40;;;6.87;;
10045;SDS011;5063;50.878;4.742;2024-03-23T03:31:30;14.20;;;7.07;;
10045;SDS011;5063;50.878;4.742;2024-03-23T03:33:56;12.27;;;5.63;;
10045;SDS011;5063;50.878;4.742;2024-03-23T03:36:22;20.33;;;7.17;;
10045;SDS011;5063;50.878;4.742;2024-03-23T03:38:48;15.33;;;6.80;;
10045;SDS011;5063;50.878;4.742;2024-03-23T03:41:13;14.80;;;6.13;;
10045;SDS011;5063;50.878;4.742;2024-03-23T03:43:39;21.50;;;5.90;;
10045;SDS011;5063;50.878;4.742;2024-03-23T03:46:05;12.83;;;6.30;;
10045;SDS011;5063;50.878;4.742;2024-03-23T03:48:33;15.37;;;5.77;;
10045;SDS011;5063;50.878;4.742;2024-03-23T03:50:59;22.10;;;5.70;;
10045;SDS011;5063;50.878;4.742;2024-03-23T03:53:25;14.77;;;5.70;;
10045;SDS011;5063;50.878;4.742;2024-03-23T03:55:51;16.27;;;5.83;;
10045;SDS011;5063;50.878;4.742;2024-03-23T03:58:17;17.43;;;6.43;;
10045;SDS011;5063;50.878;4.742;2024-03-23T04:00:43;11.20;;;5.70;;
10045;SDS011;5063;50.878;4.742;2024-03-23T04:03:08;15.73;;;6.17;;
10045;SDS011;5063;50.878;4.742;2024-03-23T04:05:34;15.67;;;5.60;;
10045;SDS011;5063;50.878;4.742;2024-03-23T04:08:00;15.87;;;5.73;;
10045;SDS011;5063;50.878;4.742;2024-03-23T04:10:26;15.23;;;6.13;;
10045;SDS011;5063;50.878;4.742;2024-03-23T04:12:52;14.77;;;6.10;;
10045;SDS011;5063;50.878;4.742;2024-03-23T04:15:19;14.20;;;6.17;;
10045;SDS011;5063;50.878;4.742;2024-03-23T04:17:45;11.90;;;5.83;;
10045;SDS011;5063;50.878;4.742;2024-03-23T04:20:11;22.97;;;6.37;;
10045;SDS011;5063;50.878;4.742;2024-03-23T04:22:39;20.57;;;7.13;;
10045;SDS011;5063;50.878;4.742;2024-03-23T04:25:05;16.10;;;7.43;;
10045;SDS011;5063;50.878;4.742;2024-03-23T04:27:38;12.13;;;6.43;;
10045;SDS011;5063;50.878;4.742;2024-03-23T04:30:06;15.03;;;7.13;;
10045;SDS011;5063;50.878;4.742;2024-03-23T04:32:39;12.47;;;6.30;;
10045;SDS011;5063;50.878;4.742;2024-03-23T04:35:05;15.50;;;7.80;;
10045;SDS011;5063;50.878;4.742;2024-03-23T04:37:34;16.57;;;7.70;;
10045;SDS011;5063;50.878;4.742;2024-03-23T04:40:06;16.37;;;7.57;;
10045;SDS011;5063;50.878;4.742;2024-03-23T04:42:32;20.13;;;8.17;;
10045;SDS011;5063;50.878;4.742;2024-03-23T04:44:58;19.03;;;8.63;;
10045;SDS011;5063;50.878;4.742;2024-03-23T04:47:24;14.60;;;7.50;;
10045;SDS011;5063;50.878;4.742;2024-03-23T04:49:50;20.87;;;9.20;;
10045;SDS011;5063;50.878;4.742;2024-03-23T04:52:16;19.67;;;9.17;;
10045;SDS011;5063;50.878;4.742;2024-03-23T04:54:42;21.70;;;8.87;;
10045;SDS011;5063;50.878;4.742;2024-03-23T04:57:08;18.83;;;10.00;;
10045;SDS011;5063;50.878;4.742;2024-03-23T04:59:34;21.93;;;9.00;;
10045;SDS011;5063;50.878;4.742;2024-03-23T05:01:59;22.20;;;9.63;;
10045;SDS011;5063;50.878;4.742;2024-03-23T05:04:25;18.47;;;9.50;;
10045;SDS011;5063;50.878;4.742;2024-03-23T05:06:52;18.33;;;9.77;;
10045;SDS011;5063;50.878;4.742;2024-03-23T05:09:17;21.77;;;8.97;;
10045;SDS011;5063;50.878;4.742;2024-03-23T05:11:43;17.07;;;7.97;;
10045;SDS011;5063;50.878;4.742;2024-03-23T05:14:09;18.33;;;9.23;;
10045;SDS011;5063;50.878;4.742;2024-03-23T05:16:34;17.60;;;8.70;;
10045;SDS011;5063;50.878;4.742;2024-03-23T05:19:00;17.73;;;7.57;;
10045;SDS011;5063;50.878;4.742;2024-03-23T05:21:26;18.77;;;7.67;;
10045;SDS011;5063;50.878;4.742;2024-03-23T05:23:53;15.47;;;7.30;;
10045;SDS011;5063;50.878;4.742;2024-03-23T05:26:19;14.63;;;7.03;;
10045;SDS011;5063;50.878;4.742;2024-03-23T05:28:45;14.80;;;6.47;;
10045;SDS011;5063;50.878;4.742;2024-03-23T05:31:11;15.10;;;6.70;;
10045;SDS011;5063;50.878;4.742;2024-03-23T05:33:37;14.37;;;5.87;;
10045;SDS011;5063;50.878;4.742;2024-03-23T05:36:06;14.43;;;6.07;;
10045;SDS011;5063;50.878;4.742;2024-03-23T05:38:36;13.97;;;5.97;;
10045;SDS011;5063;50.878;4.742;2024-03-23T05:41:02;10.53;;;5.97;;
10045;SDS011;5063;50.878;4.742;2024-03-23T05:43:27;11.30;;;6.03;;
10045;SDS011;5063;50.878;4.742;2024-03-23T05:45:57;17.70;;;5.73;;
10045;SDS011;5063;50.878;4.742;2024-03-23T05:48:24;18.30;;;7.20;;
10045;SDS011;5063;50.878;4.742;2024-03-23T05:50:55;14.53;;;6.20;;
10045;SDS011;5063;50.878;4.742;2024-03-23T05:53:21;17.20;;;6.33;;
10045;SDS011;5063;50.878;4.742;2024-03-23T05:55:47;11.70;;;6.10;;
10045;SDS011;5063;50.878;4.742;2024-03-23T05:58:14;16.07;;;6.87;;
10045;SDS011;5063;50.878;4.742;2024-03-23T06:00:41;16.87;;;6.93;;
10045;SDS011;5063;50.878;4.742;2024-03-23T06:03:07;17.33;;;7.23;;
10045;SDS011;5063;50.878;4.742;2024-03-23T06:05:33;14.47;;;7.00;;
10045;SDS011;5063;50.878;4.742;2024-03-23T06:07:59;13.07;;;6.77;;
10045;SDS011;5063;50.878;4.742;2024-03-23T06:10:25;12.67;;;7.57;;
10045;SDS011;5063;50.878;4.742;2024-03-23T06:12:51;13.60;;;7.33;;
10045;SDS011;5063;50.878;4.742;2024-03-23T06:15:19;12.47;;;6.67;;
10045;SDS011;5063;50.878;4.742;2024-03-23T06:17:45;19.40;;;7.33;;
10045;SDS011;5063;50.878;4.742;2024-03-23T06:20:11;13.73;;;7.37;;
10045;SDS011;5063;50.878;4.742;2024-03-23T06:22:38;21.17;;;7.73;;
10045;SDS011;5063;50.878;4.742;2024-03-23T06:25:04;16.07;;;6.57;;
10045;SDS011;5063;50.878;4.742;2024-03-23T06:27:30;15.23;;;6.23;;
10045;SDS011;5063;50.878;4.742;2024-03-23T06:29:57;18.27;;;7.17;;
10045;SDS011;5063;50.878;4.742;2024-03-23T06:32:23;14.60;;;6.83;;
10045;SDS011;5063;50.878;4.742;2024-03-23T06:34:49;17.17;;;6.10;;
10045;SDS011;5063;50.878;4.742;2024-03-23T06:37:15;12.57;;;5.97;;
10045;SDS011;5063;50.878;4.742;2024-03-23T06:39:40;14.13;;;5.80;;
10045;SDS011;5063;50.878;4.742;2024-03-23T06:42:06;13.27;;;5.80;;
10045;SDS011;5063;50.878;4.742;2024-03-23T06:44:33;11.40;;;5.17;;
10045;SDS011;5063;50.878;4.742;2024-03-23T06:46:59;11.87;;;5.20;;
10045;SDS011;5063;50.878;4.742;2024-03-23T06:49:25;20.00;;;6.10;;
10045;SDS011;5063;50.878;4.742;2024-03-23T06:51:50;17.50;;;6.00;;
10045;SDS011;5063;50.878;4.742;2024-03-23T06:54:17;13.47;;;5.40;;
10045;SDS011;5063;50.878;4.742;2024-03-23T06:56:44;15.57;;;5.30;;
10045;SDS011;5063;50.878;4.742;2024-03-23T06:59:10;10.37;;;4.30;;
10045;SDS011;5063;50.878;4.742;2024-03-23T07:01:36;6.80;;;4.37;;
10045;SDS011;5063;50.878;4.742;2024-03-23T07:04:01;11.97;;;4.27;;
10045;SDS011;5063;50.878;4.742;2024-03-23T07:06:29;11.10;;;4.40;;
10045;SDS011;5063;50.878;4.742;2024-03-23T07:08:55;13.37;;;4.67;;
10045;SDS011;5063;50.878;4.742;2024-03-23T07:11:21;8.73;;;3.80;;
10045;SDS011;5063;50.878;4.742;2024-03-23T07:13:51;11.90;;;4.23;;
10045;SDS011;5063;50.878;4.742;2024-03-23T07:16:21;9.47;;;3.47;;
10045;SDS011;5063;50.878;4.742;2024-03-23T07:18:47;11.40;;;4.23;;
10045;SDS011;5063;50.878;4.742;2024-03-23T07:21:15;11.07;;;3.47;;
10045;SDS011;5063;50.878;4.742;2024-03-23T07:23:44;14.17;;;3.87;;
10045;SDS011;5063;50.878;4.742;2024-03-23T07:26:10;8.57;;;3.53;;
10045;SDS011;5063;50.878;4.742;2024-03-23T07:28:36;11.57;;;3.67;;
10045;SDS011;5063;50.878;4.742;2024-03-23T07:31:10;12.10;;;2.93;;
10045;SDS011;5063;50.878;4.742;2024-03-23T07:33:43;12.23;;;2.87;;
10045;SDS011;5063;50.878;4.742;2024-03-23T07:36:10;11.87;;;2.83;;
10045;SDS011;5063;50.878;4.742;2024-03-23T07:38:36;11.63;;;2.80;;
10045;SDS011;5063;50.878;4.742;2024-03-23T07:41:02;7.43;;;2.90;;
10045;SDS011;5063;50.878;4.742;2024-03-23T07:43:29;15.60;;;3.73;;
10045;SDS011;5063;50.878;4.742;2024-03-23T07:45:55;5.50;;;2.50;;
10045;SDS011;5063;50.878;4.742;2024-03-23T07:48:21;4.03;;;2.63;;
10045;SDS011;5063;50.878;4.742;2024-03-23T07:51:23;7.13;;;2.13;;
10045;SDS011;5063;50.878;4.742;2024-03-23T07:53:43;6.90;;;2.27;;
10045;SDS011;5063;50.878;4.742;2024-03-23T07:56:11;6.63;;;2.20;;
10045;SDS011;5063;50.878;4.742;2024-03-23T07:58:38;4.53;;;2.27;;
10045;SDS011;5063;50.878;4.742;2024-03-23T08:01:04;5.33;;;2.10;;
10045;SDS011;5063;50.878;4.742;2024-03-23T08:03:37;6.00;;;1.90;;
10045;SDS011;5063;50.878;4.742;2024-03-23T08:06:08;7.70;;;2.67;;
10045;SDS011;5063;50.878;4.742;2024-03-23T08:08:34;2.47;;;1.97;;
10045;SDS011;5063;50.878;4.742;2024-03-23T08:11:00;10.03;;;2.27;;
10045;SDS011;5063;50.878;4.742;2024-03-23T08:13:26;6.67;;;2.07;;
10045;SDS011;5063;50.878;4.742;2024-03-23T08:15:55;7.87;;;2.67;;
10045;SDS011;5063;50.878;4.742;2024-03-23T08:18:21;5.87;;;2.30;;
10045;SDS011;5063;50.878;4.742;2024-03-23T08:20:54;6.07;;;3.10;;
10045;SDS011;5063;50.878;4.742;2024-03-23T08:23:21;6.17;;;2.43;;
10045;SDS011;5063;50.878;4.742;2024-03-23T08:25:46;13.00;;;3.57;;
10045;SDS011;5063;50.878;4.742;2024-03-23T08:28:12;8.33;;;2.47;;
10045;SDS011;5063;50.878;4.742;2024-03-23T08:30:38;11.87;;;2.83;;
10045;SDS011;5063;50.878;4.742;2024-03-23T08:33:04;12.63;;;3.40;;
10045;SDS011;5063;50.878;4.742;2024-03-23T08:35:29;8.67;;;3.10;;
10045;SDS011;5063;50.878;4.742;2024-03-23T08:37:55;11.40;;;3.50;;
10045;SDS011;5063;50.878;4.742;2024-03-23T08:40:21;12.43;;;3.03;;
10045;SDS011;5063;50.878;4.742;2024-03-23T08:42:47;10.50;;;2.80;;
10045;SDS011;5063;50.878;4.742;2024-03-23T08:45:13;11.40;;;2.90;;
10045;SDS011;5063;50.878;4.742;2024-03-23T08:47:39;6.83;;;2.53;;
10045;SDS011;5063;50.878;4.742;2024-03-23T08:50:04;8.27;;;2.57;;
10045;SDS011;5063;50.878;4.742;2024-03-23T08:52:30;9.57;;;2.97;;
10045;SDS011;5063;50.878;4.742;2024-03-23T08:54:56;11.40;;;3.33;;
10045;SDS011;5063;50.878;4.742;2024-03-23T08:57:23;7.80;;;2.90;;
10045;SDS011;5063;50.878;4.742;2024-03-23T08:59:49;9.60;;;3.23;;
10045;SDS011;5063;50.878;4.742;2024-03-23T09:02:15;13.90;;;2.83;;
10045;SDS011;5063;50.878;4.742;2024-03-23T09:04:41;11.90;;;3.33;;
10045;SDS011;5063;50.878;4.742;2024-03-23T09:07:07;6.07;;;2.23;;
10045;SDS011;5063;50.878;4.742;2024-03-23T09:09:32;7.43;;;3.00;;
10045;SDS011;5063;50.878;4.742;2024-03-23T09:11:58;8.10;;;2.80;;
10045;SDS011;5063;50.878;4.742;2024-03-23T09:14:24;13.27;;;3.30;;
10045;SDS011;5063;50.878;4.742;2024-03-23T09:16:50;8.47;;;2.80;;
10045;SDS011;5063;50.878;4.742;2024-03-23T09:19:16;9.93;;;2.93;;
10045;SDS011;5063;50.878;4.742;2024-03-23T09:21:43;9.60;;;3.17;;
10045;SDS011;5063;50.878;4.742;2024-03-23T09:24:08;11.53;;;2.90;;
10045;SDS011;5063;50.878;4.742;2024-03-23T09:26:34;13.10;;;2.53;;
10045;SDS011;5063;50.878;4.742;2024-03-23T09:29:00;9.13;;;2.40;;
10045;SDS011;5063;50.878;4.742;2024-03-23T09:31:25;6.03;;;2.60;;
10045;SDS011;5063;50.878;4.742;2024-03-23T09:33:51;6.13;;;2.57;;
10045;SDS011;5063;50.878;4.742;2024-03-23T09:36:17;5.67;;;2.97;;
10045;SDS011;5063;50.878;4.742;2024-03-23T09:38:43;13.57;;;2.80;;
10045;SDS011;5063;50.878;4.742;2024-03-23T09:41:09;5.27;;;2.63;;
10045;SDS011;5063;50.878;4.742;2024-03-23T09:43:35;5.07;;;2.17;;
10045;SDS011;5063;50.878;4.742;2024-03-23T09:46:01;8.37;;;2.47;;
10045;SDS011;5063;50.878;4.742;2024-03-23T09:48:28;10.47;;;2.57;;
10045;SDS011;5063;50.878;4.742;2024-03-23T09:50:53;6.30;;;2.13;;
10045;SDS011;5063;50.878;4.742;2024-03-23T09:53:19;6.00;;;2.63;;
10045;SDS011;5063;50.878;4.742;2024-03-23T09:55:47;6.57;;;2.20;;
10045;SDS011;5063;50.878;4.742;2024-03-23T09:58:15;6.97;;;2.63;;
10045;SDS011;5063;50.878;4.742;2024-03-23T10:00:42;7.27;;;2.10;;
10045;SDS011;5063;50.878;4.742;2024-03-23T10:03:08;8.20;;;2.43;;
10045;SDS011;5063;50.878;4.742;2024-03-23T10:05:36;9.40;;;2.23;;
10045;SDS011;5063;50.878;4.742;2024-03-23T10:10:43;10.80;;;3.13;;
10045;SDS011;5063;50.878;4.742;2024-03-23T10:13:10;8.67;;;2.37;;
10045;SDS011;5063;50.878;4.742;2024-03-23T10:15:38;6.23;;;2.87;;
10045;SDS011;5063;50.878;4.742;2024-03-23T10:18:25;8.70;;;2.60;;
10045;SDS011;5063;50.878;4.742;2024-03-23T10:21:11;7.93;;;2.30;;
10045;SDS011;5063;50.878;4.742;2024-03-23T10:23:37;5.07;;;2.30;;
10045;SDS011;5063;50.878;4.742;2024-03-23T10:31:33;8.47;;;2.47;;
10045;SDS011;5063;50.878;4.742;2024-03-23T10:34:02;4.07;;;2.07;;
10045;SDS011;5063;50.878;4.742;2024-03-23T10:36:29;9.13;;;2.70;;
10045;SDS011;5063;50.878;4.742;2024-03-23T10:38:55;7.33;;;2.20;;
10045;SDS011;5063;50.878;4.742;2024-03-23T10:41:25;6.93;;;2.13;;
10045;SDS011;5063;50.878;4.742;2024-03-23T10:43:56;8.10;;;2.20;;
10045;SDS011;5063;50.878;4.742;2024-03-23T10:46:23;4.13;;;2.40;;
10045;SDS011;5063;50.878;4.742;2024-03-23T10:48:49;4.40;;;1.93;;
10045;SDS011;5063;50.878;4.742;2024-03-23T10:51:15;5.90;;;2.27;;
10045;SDS011;5063;50.878;4.742;2024-03-23T10:53:41;2.83;;;1.83;;
10045;SDS011;5063;50.878;4.742;2024-03-23T10:56:07;6.73;;;2.20;;
10045;SDS011;5063;50.878;4.742;2024-03-23T10:58:44;6.43;;;2.27;;
10045;SDS011;5063;50.878;4.742;2024-03-23T11:01:12;4.03;;;1.77;;
10045;SDS011;5063;50.878;4.742;2024-03-23T11:03:39;3.47;;;1.77;;
10045;SDS011;5063;50.878;4.742;2024-03-23T11:06:09;5.67;;;2.10;;
10045;SDS011;5063;50.878;4.742;2024-03-23T11:11:18;4.40;;;1.93;;
10045;SDS011;5063;50.878;4.742;2024-03-23T11:13:49;6.90;;;1.80;;
10045;SDS011;5063;50.878;4.742;2024-03-23T11:16:16;4.30;;;2.03;;
10045;SDS011;5063;50.878;4.742;2024-03-23T11:18:46;6.63;;;1.90;;
10045;SDS011;5063;50.878;4.742;2024-03-23T11:21:51;6.80;;;1.83;;
10045;SDS011;5063;50.878;4.742;2024-03-23T11:24:17;3.87;;;1.57;;
10045;SDS011;5063;50.878;4.742;2024-03-23T11:26:44;4.27;;;1.70;;
10045;SDS011;5063;50.878;4.742;2024-03-23T11:29:10;3.80;;;1.37;;
10045;SDS011;5063;50.878;4.742;2024-03-23T11:31:46;5.03;;;1.70;;
10045;SDS011;5063;50.878;4.742;2024-03-23T11:34:19;4.73;;;1.87;;
10045;SDS011;5063;50.878;4.742;2024-03-23T11:36:46;3.93;;;1.63;;
10045;SDS011;5063;50.878;4.742;2024-03-23T11:41:51;3.33;;;1.37;;
10045;SDS011;5063;50.878;4.742;2024-03-23T11:46:44;3.97;;;1.20;;
10045;SDS011;5063;50.878;4.742;2024-03-23T11:49:23;4.93;;;1.90;;
10045;SDS011;5063;50.878;4.742;2024-03-23T11:51:56;4.47;;;1.50;;
10045;SDS011;5063;50.878;4.742;2024-03-23T11:54:25;5.00;;;1.50;;
10045;SDS011;5063;50.878;4.742;2024-03-23T11:57:01;2.50;;;1.23;;
10045;SDS011;5063;50.878;4.742;2024-03-23T11:59:30;3.03;;;1.50;;
10045;SDS011;5063;50.878;4.742;2024-03-23T12:02:10;3.60;;;1.10;;
10045;SDS011;5063;50.878;4.742;2024-03-23T12:04:38;7.70;;;1.60;;
10045;SDS011;5063;50.878;4.742;2024-03-23T12:09:37;2.87;;;1.27;;
10045;SDS011;5063;50.878;4.742;2024-03-23T12:12:11;3.13;;;2.00;;
10045;SDS011;5063;50.878;4.742;2024-03-23T12:14:43;5.10;;;1.50;;
10045;SDS011;5063;50.878;4.742;2024-03-23T12:17:13;3.80;;;1.20;;
10045;SDS011;5063;50.878;4.742;2024-03-23T12:19:40;4.83;;;1.40;;
10045;SDS011;5063;50.878;4.742;2024-03-23T12:22:10;3.37;;;1.37;;
10045;SDS011;5063;50.878;4.742;2024-03-23T12:24:36;1.90;;;1.20;;
10045;SDS011;5063;50.878;4.742;2024-03-23T12:27:02;3.50;;;1.30;;
10045;SDS011;5063;50.878;4.742;2024-03-23T12:29:30;4.43;;;1.70;;
10045;SDS011;5063;50.878;4.742;2024-03-23T12:32:00;4.77;;;1.73;;
10045;SDS011;5063;50.878;4.742;2024-03-23T12:34:27;2.93;;;1.70;;
10045;SDS011;5063;50.878;4.742;2024-03-23T12:36:53;2.13;;;1.47;;
10045;SDS011;5063;50.878;4.742;2024-03-23T12:39:19;8.60;;;2.33;;
10045;SDS011;5063;50.878;4.742;2024-03-23T12:41:48;8.87;;;2.50;;
10045;SDS011;5063;50.878;4.742;2024-03-23T12:44:14;4.60;;;2.10;;
10045;SDS011;5063;50.878;4.742;2024-03-23T12:46:41;7.47;;;2.10;;
10045;SDS011;5063;50.878;4.742;2024-03-23T12:49:07;5.07;;;1.73;;
10045;SDS011;5063;50.878;4.742;2024-03-23T12:51:33;5.70;;;2.00;;
10045;SDS011;5063;50.878;4.742;2024-03-23T12:53:59;3.40;;;1.60;;
10045;SDS011;5063;50.878;4.742;2024-03-23T12:56:25;3.47;;;1.60;;
10045;SDS011;5063;50.878;4.742;2024-03-23T12:58:51;4.87;;;1.50;;
10045;SDS011;5063;50.878;4.742;2024-03-23T13:01:18;5.17;;;1.57;;
10045;SDS011;5063;50.878;4.742;2024-03-23T13:03:46;2.57;;;1.23;;
10045;SDS011;5063;50.878;4.742;2024-03-23T13:06:12;3.20;;;1.50;;
10045;SDS011;5063;50.878;4.742;2024-03-23T13:08:38;4.77;;;1.40;;
10045;SDS011;5063;50.878;4.742;2024-03-23T13:11:05;4.97;;;1.73;;
10045;SDS011;5063;50.878;4.742;2024-03-23T13:13:34;4.50;;;1.60;;
10045;SDS011;5063;50.878;4.742;2024-03-23T13:16:00;6.70;;;2.00;;
10045;SDS011;5063;50.878;4.742;2024-03-23T13:18:25;2.87;;;1.40;;
10045;SDS011;5063;50.878;4.742;2024-03-23T13:20:51;3.47;;;1.53;;
10045;SDS011;5063;50.878;4.742;2024-03-23T13:23:17;3.13;;;1.43;;
10045;SDS011;5063;50.878;4.742;2024-03-23T13:25:49;3.03;;;1.30;;
10045;SDS011;5063;50.878;4.742;2024-03-23T13:28:19;3.57;;;1.53;;
10045;SDS011;5063;50.878;4.742;2024-03-23T13:30:51;4.17;;;1.73;;
10045;SDS011;5063;50.878;4.742;2024-03-23T13:33:21;3.83;;;1.27;;
10045;SDS011;5063;50.878;4.742;2024-03-23T13:38:16;3.77;;;1.40;;
10045;SDS011;5063;50.878;4.742;2024-03-23T13:43:16;7.30;;;1.50;;
10045;SDS011;5063;50.878;4.742;2024-03-23T13:45:42;3.07;;;1.70;;
10045;SDS011;5063;50.878;4.742;2024-03-23T13:48:08;2.80;;;1.50;;
10045;SDS011;5063;50.878;4.742;2024-03-23T13:50:34;2.83;;;1.40;;
10045;SDS011;5063;50.878;4.742;2024-03-23T13:52:59;2.20;;;1.23;;
10045;SDS011;5063;50.878;4.742;2024-03-23T13:55:25;4.37;;;1.20;;
10045;SDS011;5063;50.878;4.742;2024-03-23T13:57:51;2.30;;;1.27;;
10045;SDS011;5063;50.878;4.742;2024-03-23T14:00:17;5.80;;;1.57;;
10045;SDS011;5063;50.878;4.742;2024-03-23T14:02:43;8.07;;;1.63;;
10045;SDS011;5063;50.878;4.742;2024-03-23T14:05:09;1.50;;;0.83;;
10045;SDS011;5063;50.878;4.742;2024-03-23T14:07:36;4.57;;;1.23;;
10045;SDS011;5063;50.878;4.742;2024-03-23T14:10:03;4.37;;;1.33;;
10045;SDS011;5063;50.878;4.742;2024-03-23T14:12:31;3.53;;;0.80;;
10045;SDS011;5063;50.878;4.742;2024-03-23T14:14:57;4.90;;;1.50;;
10045;SDS011;5063;50.878;4.742;2024-03-23T14:17:23;4.53;;;1.67;;
10045;SDS011;5063;50.878;4.742;2024-03-23T14:19:49;1.80;;;1.17;;
10045;SDS011;5063;50.878;4.742;2024-03-23T14:22:15;5.23;;;1.47;;
10045;SDS011;5063;50.878;4.742;2024-03-23T14:24:44;7.83;;;1.20;;
10045;SDS011;5063;50.878;4.742;2024-03-23T14:27:10;2.20;;;1.20;;
10045;SDS011;5063;50.878;4.742;2024-03-23T14:29:36;4.57;;;1.17;;
10045;SDS011;5063;50.878;4.742;2024-03-23T14:32:02;4.63;;;1.57;;
10045;SDS011;5063;50.878;4.742;2024-03-23T14:34:27;1.43;;;1.17;;
10045;SDS011;5063;50.878;4.742;2024-03-23T14:36:53;3.27;;;1.70;;
10045;SDS011;5063;50.878;4.742;2024-03-23T14:39:23;5.30;;;1.90;;
10045;SDS011;5063;50.878;4.742;2024-03-23T14:41:50;6.93;;;1.60;;
10045;SDS011;5063;50.878;4.742;2024-03-23T14:44:16;1.67;;;1.00;;
10045;SDS011;5063;50.878;4.742;2024-03-23T14:46:41;2.53;;;1.50;;
10045;SDS011;5063;50.878;4.742;2024-03-23T14:49:08;5.27;;;1.50;;
10045;SDS011;5063;50.878;4.742;2024-03-23T14:51:34;6.67;;;1.80;;
10045;SDS011;5063;50.878;4.742;2024-03-23T14:53:59;4.97;;;1.77;;
10045;SDS011;5063;50.878;4.742;2024-03-23T14:56:25;5.73;;;1.60;;
10045;SDS011;5063;50.878;4.742;2024-03-23T14:58:54;2.63;;;1.67;;
10045;SDS011;5063;50.878;4.742;2024-03-23T15:01:21;4.47;;;1.70;;
10045;SDS011;5063;50.878;4.742;2024-03-23T15:03:47;4.57;;;1.37;;
10045;SDS011;5063;50.878;4.742;2024-03-23T15:06:12;4.77;;;1.50;;
10045;SDS011;5063;50.878;4.742;2024-03-23T15:08:38;4.73;;;1.90;;
10045;SDS011;5063;50.878;4.742;2024-03-23T15:11:05;5.27;;;2.07;;
10045;SDS011;5063;50.878;4.742;2024-03-23T15:13:32;3.30;;;1.77;;
10045;SDS011;5063;50.878;4.742;2024-03-23T15:15:58;6.40;;;1.70;;
10045;SDS011;5063;50.878;4.742;2024-03-23T15:18:24;2.50;;;1.60;;
10045;SDS011;5063;50.878;4.742;2024-03-23T15:20:55;4.80;;;1.77;;
10045;SDS011;5063;50.878;4.742;2024-03-23T15:23:22;9.10;;;2.10;;
10045;SDS011;5063;50.878;4.742;2024-03-23T15:25:54;8.13;;;1.87;;
10045;SDS011;5063;50.878;4.742;2024-03-23T15:28:20;4.63;;;2.40;;
10045;SDS011;5063;50.878;4.742;2024-03-23T15:30:46;4.13;;;1.70;;
10045;SDS011;5063;50.878;4.742;2024-03-23T15:33:12;3.00;;;1.77;;
10045;SDS011;5063;50.878;4.742;2024-03-23T15:35:38;2.87;;;1.80;;
10045;SDS011;5063;50.878;4.742;2024-03-23T15:38:03;3.93;;;1.63;;
10045;SDS011;5063;50.878;4.742;2024-03-23T15:40:29;3.60;;;1.67;;
10045;SDS011;5063;50.878;4.742;2024-03-23T15:42:55;4.10;;;1.43;;
10045;SDS011;5063;50.878;4.742;2024-03-23T15:45:20;4.53;;;1.50;;
10045;SDS011;5063;50.878;4.742;2024-03-23T15:47:47;3.20;;;1.70;;
10045;SDS011;5063;50.878;4.742;2024-03-23T15:50:12;5.80;;;1.33;;
10045;SDS011;5063;50.878;4.742;2024-03-23T15:52:38;4.00;;;1.43;;
10045;SDS011;5063;50.878;4.742;2024-03-23T15:55:04;4.37;;;1.90;;
10045;SDS011;5063;50.878;4.742;2024-03-23T15:57:35;6.57;;;1.80;;
10045;SDS011;5063;50.878;4.742;2024-03-23T16:00:01;4.83;;;1.43;;
10045;SDS011;5063;50.878;4.742;2024-03-23T16:02:28;5.63;;;1.90;;
10045;SDS011;5063;50.878;4.742;2024-03-23T16:04:54;4.40;;;1.40;;
10045;SDS011;5063;50.878;4.742;2024-03-23T16:07:22;8.20;;;2.13;;
10045;SDS011;5063;50.878;4.742;2024-03-23T16:09:47;3.87;;;1.27;;